Time;durP1;ratioP1;P1;durP2;ratioP2;P2;SDS_P1;SDS_P2;PMS_P1;PMS_P2;Temp;Humidity;BMP_temperature;BMP_pressure;BME280_temperature;BME280_humidity;BME280_pressure;Samples;Min_cycle;Max_cycle;Signal;HPM_P1;HPM_P2
2022/04/16 00:01:49;;;;;;;6.72;3.75;;;;;;;8.07;79.94;90852.28;5015354;28;20030;-64
2022/04/16 00:04:15;;;;;;;7.10;3.97;;;;;;;7.98;80.50;90867.28;5015377;28;20470;-64
2022/04/16 00:06:40;;;;;;;9.48;3.95;;;;;;;7.88;81.90;90859.50;5015183;28;20032;-63
2022/04/16 00:09:06;;;;;;;6.57;4.03;;;;;;;7.78;82.70;90865.00;5015306;28;20101;-63
2022/04/16 00:11:31;;;;;;;8.23;3.85;;;;;;;7.64;84.19;90859.69;5015212;28;20492;-64
2022/04/16 00:13:57;;;;;;;5.00;3.65;;;;;;;7.64;84.85;90869.50;5015209;28;20088;-64
2022/04/16 00:16:23;;;;;;;5.28;3.88;;;;;;;7.56;85.70;90872.78;5015489;28;20041;-64
2022/04/16 00:18:49;;;;;;;5.55;4.07;;;;;;;7.59;86.16;90859.00;5015122;28;20030;-64
2022/04/16 00:21:14;;;;;;;4.90;3.78;;;;;;;7.61;86.51;90870.88;5015062;28;20026;-64
2022/04/16 00:23:43;;;;;;;5.88;3.63;;;;;;;7.59;86.86;90870.38;5015154;28;20083;-64
2022/04/16 00:26:12;;;;;;;5.05;4.22;;;;;;;7.59;87.18;90869.59;5015437;28;20400;-64
2022/04/16 00:28:39;;;;;;;7.15;4.55;;;;;;;7.57;87.47;90872.50;5014250;28;20571;-64
2022/04/16 00:31:04;;;;;;;6.50;4.18;;;;;;;7.46;88.94;90863.19;5014678;28;20033;-64
2022/04/16 00:33:32;;;;;;;7.32;3.90;;;;;;;7.48;89.27;90861.81;5014878;28;20029;-64
2022/04/16 00:35:57;;;;;;;6.30;4.03;;;;;;;7.43;89.66;90859.25;5014697;28;20030;-64
2022/04/16 00:38:23;;;;;;;9.15;3.80;;;;;;;7.43;92.59;90859.25;5014738;28;20499;-64
2022/04/16 00:40:48;;;;;;;6.22;4.57;;;;;;;7.42;92.79;90852.41;5014769;28;20026;-64
2022/04/16 00:43:40;;;;;;;9.23;4.40;;;;;;;7.39;93.84;90852.19;5014651;28;20037;-64
2022/04/16 00:46:05;;;;;;;10.45;4.10;;;;;;;7.38;94.52;90851.38;5010745;28;20049;-64
2022/04/16 00:48:31;;;;;;;7.07;4.03;;;;;;;7.57;91.38;90853.19;4996665;28;20026;-65
2022/04/16 00:50:56;;;;;;;7.90;4.22;;;;;;;7.60;90.04;90857.94;5014446;28;20028;-64
2022/04/16 00:53:27;;;;;;;6.53;4.00;;;;;;;7.65;89.57;90855.19;5014286;28;20539;-64
2022/04/16 00:55:53;;;;;;;6.55;4.20;;;;;;;7.57;90.92;90845.25;5014461;28;20377;-64
2022/04/16 00:58:19;;;;;;;5.18;4.03;;;;;;;7.46;92.55;90839.38;5014177;28;20033;-64
2022/04/16 01:00:44;;;;;;;7.30;3.80;;;;;;;7.41;93.92;90844.72;5014134;28;20021;-64
2022/04/16 01:03:10;;;;;;;6.40;3.83;;;;;;;7.44;92.96;90839.66;5014225;28;20030;-65
2022/04/16 01:05:37;;;;;;;4.65;3.22;;;;;;;7.47;91.13;90843.59;5014306;28;20026;-65
2022/04/16 01:08:04;;;;;;;5.30;3.35;;;;;;;7.49;90.01;90839.56;5014192;28;20069;-65
2022/04/16 01:10:32;;;;;;;5.00;3.30;;;;;;;7.53;89.14;90841.63;5013812;28;20602;-64
2022/04/16 01:13:01;;;;;;;6.07;3.72;;;;;;;7.59;88.38;90843.13;5014184;28;20112;-65
2022/04/16 01:15:29;;;;;;;7.60;3.75;;;;;;;7.48;88.77;90840.63;5014001;28;20113;-65
2022/04/16 01:17:55;;;;;;;4.63;3.40;;;;;;;7.59;87.28;90835.19;5014046;28;20034;-65
2022/04/16 01:20:24;;;;;;;4.43;3.38;;;;;;;7.59;86.55;90828.03;5013699;28;20026;-65
2022/04/16 01:22:51;;;;;;;4.25;3.30;;;;;;;7.69;85.76;90832.31;5013642;28;20041;-65
2022/04/16 01:25:18;;;;;;;6.32;3.67;;;;;;;7.69;85.24;90834.97;5013781;28;20507;-65
2022/04/16 01:27:45;;;;;;;5.97;3.53;;;;;;;7.69;85.29;90830.47;5013612;28;20092;-65
2022/04/16 01:30:15;;;;;;;4.97;3.83;;;;;;;7.75;84.61;90829.31;5013710;28;20025;-65
2022/04/16 01:32:41;;;;;;;7.93;3.70;;;;;;;7.69;84.92;90816.44;5013778;28;20526;-65
2022/04/16 01:35:07;;;;;;;5.28;3.15;;;;;;;7.81;83.43;90816.75;5013707;28;20026;-65
2022/04/16 01:37:37;;;;;;;4.25;3.13;;;;;;;7.91;82.92;90816.56;5013860;28;20041;-65
2022/04/16 01:40:05;;;;;;;4.22;3.50;;;;;;;7.87;83.01;90810.25;5012462;28;20381;-65
2022/04/16 01:42:32;;;;;;;5.25;3.38;;;;;;;7.84;83.25;90808.22;5013112;28;20117;-65
2022/04/16 01:45:00;;;;;;;5.10;3.70;;;;;;;7.72;84.15;90814.00;5008967;28;20105;-65
2022/04/16 01:47:27;;;;;;;4.00;3.40;;;;;;;7.73;84.70;90817.41;5013268;28;20040;-64
2022/04/16 01:49:53;;;;;;;4.97;3.72;;;;;;;7.65;85.10;90810.16;4996662;28;20026;-64
2022/04/16 01:52:18;;;;;;;5.38;3.70;;;;;;;7.57;85.91;90811.63;5002554;28;20036;-64
2022/04/16 01:54:44;;;;;;;4.63;3.17;;;;;;;7.54;86.41;90811.44;5013332;28;20492;-64
2022/04/16 01:57:09;;;;;;;3.83;3.13;;;;;;;7.49;86.98;90809.66;5013057;28;20114;-64
2022/04/16 01:59:34;;;;;;;5.45;3.17;;;;;;;7.45;87.12;90804.19;5013522;28;20018;-64
2022/04/16 02:02:00;;;;;;;5.50;3.35;;;;;;;7.55;86.18;90797.91;5013122;28;20109;-64
2022/04/16 02:04:26;;;;;;;4.93;3.60;;;;;;;7.59;85.32;90798.13;5013159;28;20472;-64
2022/04/16 02:06:52;;;;;;;6.90;3.65;;;;;;;7.67;84.87;90802.72;5011449;28;20388;-65
2022/04/16 02:09:18;;;;;;;8.80;3.55;;;;;;;7.64;84.73;90796.16;4993111;28;20045;-64
2022/04/16 02:11:43;;;;;;;4.70;3.55;;;;;;;7.59;85.83;90800.75;4993256;28;20031;-64
2022/04/16 02:14:09;;;;;;;4.57;3.17;;;;;;;7.48;87.13;90795.66;4993524;28;20150;-64
2022/04/16 02:16:35;;;;;;;6.90;3.65;;;;;;;7.45;87.43;90793.59;4993281;28;20440;-64
2022/04/16 02:19:00;;;;;;;6.47;4.15;;;;;;;7.38;87.99;90787.88;4993064;28;20075;-64
2022/04/16 02:21:27;;;;;;;6.07;3.33;;;;;;;7.41;87.49;90782.00;4993086;28;20057;-64
2022/04/16 02:23:54;;;;;;;4.78;4.00;;;;;;;7.44;86.87;90786.72;4993038;28;20408;-64
2022/04/16 02:26:22;;;;;;;8.40;3.72;;;;;;;7.51;85.96;90781.03;4993183;28;20026;-64
2022/04/16 02:28:51;;;;;;;7.35;3.58;;;;;;;7.58;84.67;90778.03;4993026;28;20054;-64
2022/04/16 02:31:16;;;;;;;8.77;3.53;;;;;;;7.63;84.55;90788.50;4993073;28;20032;-64
2022/04/16 02:33:41;;;;;;;3.75;3.30;;;;;;;7.61;84.11;90786.16;4992995;28;20101;-63
2022/04/16 02:36:07;;;;;;;5.43;3.15;;;;;;;7.63;83.79;90789.28;4992894;28;20041;-63
2022/04/16 02:38:34;;;;;;;6.80;3.20;;;;;;;7.67;83.94;90784.97;4992814;28;20109;-63
2022/04/16 02:40:59;;;;;;;5.47;3.13;;;;;;;7.59;84.24;90783.03;4992725;28;20073;-64
2022/04/16 02:43:25;;;;;;;5.95;3.33;;;;;;;7.61;84.75;90785.38;4992874;28;20058;-63
2022/04/16 02:48:34;;;;;;;4.65;3.15;;;;;;;7.56;85.10;90766.91;4992916;28;20538;-64
2022/04/16 02:51:00;;;;;;;5.30;3.92;;;;;;;7.55;85.18;90770.63;4992317;28;20117;-63
2022/04/16 02:53:26;;;;;;;5.97;3.30;;;;;;;7.54;84.92;90758.50;4992829;28;20022;-63
2022/04/16 02:55:55;;;;;;;6.80;4.30;;;;;;;7.56;84.25;90758.97;4992784;28;20118;-64
2022/04/16 02:58:21;;;;;;;6.38;3.92;;;;;;;7.57;83.62;90761.31;4992654;28;20034;-64
2022/04/16 03:00:46;;;;;;;6.88;3.30;;;;;;;7.68;82.05;90765.34;4992643;28;20474;-64
2022/04/16 03:03:12;;;;;;;5.35;3.35;;;;;;;7.63;82.47;90759.38;4992918;28;20487;-64
2022/04/16 03:05:38;;;;;;;6.85;3.72;;;;;;;7.56;83.48;90777.50;4992483;28;20070;-64
2022/04/16 03:08:06;;;;;;;4.35;3.40;;;;;;;7.33;84.95;90763.38;4992703;28;20109;-64
2022/04/16 03:10:31;;;;;;;5.53;3.20;;;;;;;7.25;87.14;90769.34;4992655;28;20041;-64
2022/04/16 03:12:57;;;;;;;6.38;5.32;;;;;;;6.99;90.30;90766.34;4992784;28;20046;-63
2022/04/16 03:18:09;;;;;;;;;;;;;;;6.66;96.21;90768.22;4993017;28;20089;-64
2022/04/16 03:20:37;;;;;;;6.32;3.83;;;;;;;6.43;100.00;90772.50;4992722;28;19949;-64
2022/04/16 03:23:03;;;;;;;5.43;4.65;;;;;;;6.44;100.00;90784.66;4992864;28;20033;-63
2022/04/16 03:25:29;;;;;;;6.05;4.57;;;;;;;6.39;100.00;90779.44;4992366;28;20081;-63
2022/04/16 03:27:55;;;;;;;8.95;5.10;;;;;;;6.16;100.00;90789.81;4992510;28;20062;-63
2022/04/16 03:30:23;;;;;;;6.95;4.93;;;;;;;6.12;100.00;90799.34;4992495;28;20041;-64
2022/04/16 03:32:50;;;;;;;9.20;5.13;;;;;;;6.09;100.00;90799.94;4992169;28;20511;-64
2022/04/16 03:35:18;;;;;;;6.88;4.63;;;;;;;6.23;100.00;90798.16;4992161;28;20030;-64
2022/04/16 03:37:44;;;;;;;7.88;5.28;;;;;;;6.21;100.00;90807.44;4992603;28;20091;-63
2022/04/16 03:40:10;;;;;;;6.95;4.10;;;;;;;6.18;100.00;90811.44;4974732;28;20026;-63
2022/04/16 03:42:47;;;;;;;9.20;5.07;;;;;;;6.10;100.00;90806.78;4995632;28;20041;-63
2022/04/16 03:45:21;;;;;;;7.45;4.97;;;;;;;6.06;100.00;90821.63;4998506;28;20093;-63
2022/04/16 03:47:51;;;;;;;14.70;5.57;;;;;;;5.94;100.00;90822.03;5000909;28;20022;-63
2022/04/16 03:50:18;;;;;;;18.90;5.90;;;;;;;5.80;100.00;90822.97;5011915;28;20040;-63
2022/04/16 03:52:45;;;;;;;14.82;6.28;;;;;;;5.70;100.00;90829.94;5011827;28;20511;-63
2022/04/16 04:00:45;;;;;;;11.73;5.70;;;;;;;5.64;100.00;90832.91;5011917;28;20487;-64
2022/04/16 04:03:14;;;;;;;13.57;5.72;;;;;;;5.72;100.00;90833.09;5013470;28;20030;-64
2022/04/16 04:05:42;;;;;;;23.08;6.72;;;;;;;5.62;100.00;90838.47;5015521;28;20081;-64
2022/04/16 04:08:09;;;;;;;23.23;6.88;;;;;;;5.65;100.00;90827.34;5015139;28;20034;-64
2022/04/16 04:10:35;;;;;;;16.20;6.40;;;;;;;5.69;100.00;90833.66;5015291;28;20137;-65
2022/04/16 04:13:01;;;;;;;19.85;7.55;;;;;;;5.83;100.00;90846.94;5015192;28;20101;-65
2022/04/16 04:15:27;;;;;;;34.40;8.02;;;;;;;5.88;100.00;90841.63;5015328;28;20060;-65
2022/04/16 04:17:53;;;;;;;36.97;10.32;;;;;;;6.02;100.00;90844.38;5014978;28;20089;-64
2022/04/16 04:20:19;;;;;;;21.33;9.48;;;;;;;6.22;100.00;90846.00;5015108;28;20018;-64
2022/04/16 04:22:45;;;;;;;11.90;6.10;;;;;;;6.39;100.00;90841.00;5014813;28;20029;-64
2022/04/16 04:25:10;;;;;;;14.30;6.10;;;;;;;6.72;100.00;90833.16;5015820;28;20022;-64
2022/04/16 04:27:36;;;;;;;16.98;6.07;;;;;;;6.83;100.00;90832.72;5014829;28;20034;-64
2022/04/16 04:30:02;;;;;;;12.30;5.57;;;;;;;7.02;98.26;90835.31;5014589;28;20111;-64
2022/04/16 04:32:28;;;;;;;13.55;4.78;;;;;;;7.30;95.21;90833.56;5014969;28;20111;-64
2022/04/16 04:34:54;;;;;;;12.90;5.25;;;;;;;7.56;91.33;90838.38;5014612;28;20488;-64
2022/04/16 04:37:19;;;;;;;9.98;5.03;;;;;;;7.85;88.18;90841.56;5014521;28;20033;-64
2022/04/16 04:39:45;;;;;;;6.95;4.65;;;;;;;7.95;85.82;90848.53;5014365;28;20484;-65
2022/04/16 04:42:10;;;;;;;9.10;4.38;;;;;;;8.32;82.95;90847.53;5014820;28;20030;-64
2022/04/16 04:44:36;;;;;;;7.90;3.63;;;;;;;8.54;81.62;90849.50;5014598;28;20049;-64
2022/04/16 04:47:01;;;;;;;7.35;4.00;;;;;;;8.82;78.33;90847.56;5014458;28;20108;-65
2022/04/16 04:49:27;;;;;;;11.98;4.57;;;;;;;9.10;76.62;90851.69;4996594;28;20057;-65
2022/04/16 04:51:52;;;;;;;9.75;4.30;;;;;;;9.72;72.77;90856.31;5014160;28;20037;-65
2022/04/16 04:54:18;;;;;;;6.45;3.78;;;;;;;10.02;70.80;90854.75;5014391;28;20021;-64
2022/04/16 04:56:43;;;;;;;8.25;4.55;;;;;;;10.24;70.18;90854.69;5014396;28;20500;-64
2022/04/16 04:59:09;;;;;;;9.40;4.70;;;;;;;11.16;66.07;90855.50;5014125;28;20041;-65
2022/04/16 05:01:35;;;;;;;11.05;4.47;;;;;;;11.39;65.39;90848.13;5014178;28;20033;-65
2022/04/16 05:04:00;;;;;;;20.92;5.03;;;;;;;12.25;62.97;90853.28;5014084;28;20080;-64
2022/04/16 05:06:26;;;;;;;19.13;4.90;;;;;;;12.73;59.64;90838.75;5014043;28;20025;-65
2022/04/16 05:08:51;;;;;;;14.23;5.28;;;;;;;12.94;58.17;90846.00;5013921;28;20030;-64
2022/04/16 05:11:17;;;;;;;12.27;4.68;;;;;;;12.40;59.50;90856.50;5014293;28;20492;-64
2022/04/16 05:13:42;;;;;;;7.22;3.88;;;;;;;12.78;58.17;90853.78;5013810;28;20037;-63
2022/04/16 05:16:08;;;;;;;5.00;4.18;;;;;;;13.08;57.19;90851.88;5013874;28;20585;-65
2022/04/16 05:18:34;;;;;;;6.85;4.18;;;;;;;13.36;55.30;90850.28;5012957;28;20026;-66
2022/04/16 05:21:00;;;;;;;7.88;4.00;;;;;;;13.33;54.97;90842.16;5013522;28;20022;-66
2022/04/16 05:23:25;;;;;;;5.30;3.80;;;;;;;14.18;53.53;90845.09;5013370;28;20408;-67
2022/04/16 05:25:51;;;;;;;8.38;3.80;;;;;;;14.81;51.03;90861.69;5013475;28;20499;-66
2022/04/16 05:28:17;;;;;;;9.85;3.80;;;;;;;14.84;50.57;90857.56;5013594;28;20041;-66
2022/04/16 05:30:48;;;;;;;9.00;3.97;;;;;;;15.22;50.27;90855.28;5013516;28;20029;-66
2022/04/16 05:36:01;;;;;;;5.97;3.63;;;;;;;15.81;47.87;90846.66;5013613;28;20056;-66
2022/04/16 05:38:27;;;;;;;4.97;3.20;;;;;;;15.94;46.56;90849.25;5013261;28;20531;-66
2022/04/16 05:40:52;;;;;;;7.78;4.10;;;;;;;16.66;45.13;90849.97;5013344;28;20022;-66
2022/04/16 05:43:17;;;;;;;9.82;4.18;;;;;;;17.43;44.26;90846.75;5013165;28;20037;-66
2022/04/16 05:45:44;;;;;;;12.15;4.35;;;;;;;18.20;42.51;90839.50;5013048;28;20050;-66
2022/04/16 05:48:10;;;;;;;7.82;3.83;;;;;;;18.76;41.87;90844.34;5012992;28;20567;-66
2022/04/16 05:50:35;;;;;;;10.38;4.35;;;;;;;19.04;41.03;90848.63;5013348;28;20149;-66
2022/04/16 05:53:01;;;;;;;20.30;5.30;;;;;;;19.60;40.94;90850.63;5013040;28;20030;-66
2022/04/16 05:55:27;;;;;;;17.10;5.22;;;;;;;20.17;39.57;90845.94;5013581;28;20045;-66
2022/04/16 05:57:52;;;;;;;9.00;4.45;;;;;;;20.04;39.83;90832.69;5013049;28;20103;-66
2022/04/16 06:00:17;;;;;;;7.32;3.90;;;;;;;19.23;40.82;90839.66;5013489;28;20414;-67
2022/04/16 06:02:43;;;;;;;16.45;4.40;;;;;;;19.69;40.31;90840.34;5013220;28;20018;-67
2022/04/16 06:05:09;;;;;;;7.03;4.30;;;;;;;20.11;39.63;90823.09;5012964;28;20498;-67
2022/04/16 06:07:35;;;;;;;9.30;5.13;;;;;;;20.58;39.05;90839.47;5013066;28;20658;-67
2022/04/16 06:10:00;;;;;;;13.77;4.60;;;;;;;21.53;37.73;90833.28;5013006;28;20100;-67
2022/04/16 06:12:26;;;;;;;11.77;4.60;;;;;;;23.09;35.36;90834.22;5013134;28;20403;-67
2022/04/16 06:14:52;;;;;;;18.40;8.27;;;;;;;23.00;34.98;90837.31;5012664;28;20030;-67
2022/04/16 06:17:18;;;;;;;12.52;6.85;;;;;;;23.41;34.62;90831.50;5012557;28;20509;-67
2022/04/16 06:19:44;;;;;;;16.02;6.45;;;;;;;24.79;33.21;90822.91;5012494;28;20033;-67
2022/04/16 06:22:12;;;;;;;16.90;6.82;;;;;;;24.86;32.80;90826.75;5013122;28;20030;-67
2022/04/16 06:24:46;;;;;;;12.32;5.75;;;;;;;24.87;33.01;90822.88;5013094;28;20022;-67
2022/04/16 06:27:12;;;;;;;9.90;4.13;;;;;;;24.92;32.41;90814.28;4990822;28;20089;-67
2022/04/16 06:29:38;;;;;;;7.47;4.47;;;;;;;25.45;33.17;90810.41;4992599;28;20385;-67
2022/04/16 06:32:04;;;;;;;7.82;3.50;;;;;;;23.55;34.21;90815.97;4992811;28;20088;-66
2022/04/16 06:34:30;;;;;;;12.35;3.75;;;;;;;24.30;34.04;90806.84;4992621;28;20030;-67
2022/04/16 06:36:55;;;;;;;12.52;5.30;;;;;;;26.17;31.32;90803.06;4992234;28;20057;-67
2022/04/16 06:39:21;;;;;;;21.27;7.68;;;;;;;27.50;30.13;90806.31;4996536;28;20034;-66
2022/04/16 06:41:46;;;;;;;10.20;5.10;;;;;;;26.97;30.14;90805.16;5011549;28;20018;-66
2022/04/16 06:44:12;;;;;;;19.65;5.38;;;;;;;25.30;31.53;90801.59;4993661;28;20097;-67
2022/04/16 06:46:37;;;;;;;11.85;4.45;;;;;;;23.47;33.68;90805.50;5011484;28;20041;-66
2022/04/16 06:49:03;;;;;;;11.93;3.70;;;;;;;25.21;32.05;90806.69;5011148;28;20021;-66
2022/04/16 06:51:29;;;;;;;5.40;3.30;;;;;;;24.63;32.08;90800.88;5010929;28;20018;-66
2022/04/16 06:53:55;;;;;;;11.98;4.00;;;;;;;24.35;32.10;90796.34;5011664;28;20041;-67
2022/04/16 06:56:21;;;;;;;6.53;3.53;;;;;;;26.58;30.30;90794.78;5011677;28;20033;-67
2022/04/16 06:58:46;;;;;;;15.63;5.18;;;;;;;27.85;29.69;90790.50;5011892;28;20496;-68
2022/04/16 07:01:12;;;;;;;94.13;9.73;;;;;;;27.05;29.36;90795.72;5011932;28;20083;-68
2022/04/16 07:03:37;;;;;;;13.63;5.03;;;;;;;25.49;30.57;90792.84;5012021;28;20433;-69
2022/04/16 07:06:02;;;;;;;12.55;4.82;;;;;;;26.59;30.35;90798.28;5010034;28;20026;-68
2022/04/16 07:08:28;;;;;;;25.48;16.15;;;;;;;28.19;28.52;90793.00;5010459;28;20022;-68
2022/04/16 07:10:54;;;;;;;15.25;7.40;;;;;;;27.41;28.01;90787.72;5010658;28;20032;-68
2022/04/16 07:13:19;;;;;;;29.98;9.25;;;;;;;26.11;28.89;90775.47;5008501;28;20026;-68
2022/04/16 07:15:45;;;;;;;24.25;7.03;;;;;;;26.83;29.39;90778.84;4996510;28;20378;-67
2022/04/16 07:18:11;;;;;;;13.63;6.50;;;;;;;26.96;29.97;90778.25;4992355;28;20101;-67
2022/04/16 07:20:36;;;;;;;16.17;8.82;;;;;;;25.66;30.16;90782.94;5004385;28;20490;-66
2022/04/16 07:23:03;;;;;;;12.13;8.25;;;;;;;24.91;29.54;90772.69;5010875;28;20022;-69
2022/04/16 07:25:29;;;;;;;15.05;4.93;;;;;;;24.56;30.46;90770.19;5010426;28;20045;-70
2022/04/16 07:27:54;;;;;;;415.58;32.58;;;;;;;22.38;31.92;90769.78;5010774;28;20068;-69
2022/04/16 07:30:20;;;;;;;47.85;14.57;;;;;;;22.46;32.08;90778.72;5010977;28;20057;-70
2022/04/16 07:32:45;;;;;;;18.77;8.77;;;;;;;23.10;32.36;90786.94;5011049;28;20030;-70
2022/04/16 07:35:10;;;;;;;19.50;6.82;;;;;;;23.15;32.55;90790.03;5010957;28;20476;-69
2022/04/16 07:37:36;;;;;;;48.92;18.38;;;;;;;24.68;30.54;90770.50;5012238;28;20052;-69
2022/04/16 07:40:02;;;;;;;58.97;9.38;;;;;;;26.20;29.48;90780.44;5015875;28;20416;-69
2022/04/16 07:42:28;;;;;;;21.80;7.93;;;;;;;25.81;30.50;90778.16;5015362;28;20030;-70
2022/04/16 07:44:56;;;;;;;13.15;5.38;;;;;;;24.08;31.13;90766.16;5014757;28;20534;-69
2022/04/16 07:47:21;;;;;;;31.25;8.90;;;;;;;24.63;31.24;90781.06;5014523;28;20483;-69
2022/04/16 07:49:47;;;;;;;14.07;5.82;;;;;;;24.01;32.60;90773.56;5014705;28;20040;-68
2022/04/16 07:52:12;;;;;;;16.33;7.63;;;;;;;22.28;36.50;90768.63;5014270;28;20096;-69
2022/04/16 07:54:38;;;;;;;7.53;5.07;;;;;;;21.99;37.11;90772.38;5014788;28;20045;-68
2022/04/16 07:57:06;;;;;;;66.72;8.95;;;;;;;21.48;38.87;90776.03;5014365;28;20434;-68
2022/04/16 07:59:32;;;;;;;161.48;15.68;;;;;;;22.63;37.14;90776.03;5014272;28;20034;-68
2022/04/16 08:01:58;;;;;;;14.68;4.72;;;;;;;22.94;34.90;90768.34;5014379;28;20042;-67
2022/04/16 08:04:24;;;;;;;15.05;7.60;;;;;;;22.64;35.67;90774.09;5014201;28;20458;-67
2022/04/16 08:06:50;;;;;;;6.13;4.30;;;;;;;23.53;32.66;90777.56;5014102;28;20034;-66
2022/04/16 08:09:16;;;;;;;45.60;8.50;;;;;;;24.63;32.55;90768.22;5014086;28;20022;-65
2022/04/16 08:11:42;;;;;;;16.13;5.55;;;;;;;23.97;33.17;90776.28;5014203;28;20025;-66
2022/04/16 08:14:07;;;;;;;7.07;4.40;;;;;;;21.64;36.81;90765.66;5014107;28;20404;-67
2022/04/16 08:16:33;;;;;;;15.20;5.30;;;;;;;22.68;34.39;90788.44;5014004;28;20029;-65
2022/04/16 08:18:59;;;;;;;9.60;4.65;;;;;;;23.32;33.37;90777.59;5014026;28;20029;-64
2022/04/16 08:21:28;;;;;;;11.63;4.90;;;;;;;24.84;31.66;90780.13;5013509;28;20512;-65
2022/04/16 08:26:51;;;;;;;24.95;5.22;;;;;;;24.11;32.37;90778.16;4991420;28;20049;-66
2022/04/16 08:29:17;;;;;;;45.83;7.93;;;;;;;23.18;32.48;90766.75;5013701;28;20433;-66
2022/04/16 08:31:43;;;;;;;14.07;6.13;;;;;;;23.64;33.39;90774.84;5013698;28;20034;-65
2022/04/16 08:34:08;;;;;;;10.82;5.18;;;;;;;23.19;31.74;90765.59;5013838;28;20026;-67
2022/04/16 08:36:33;;;;;;;10.80;5.95;;;;;;;25.53;29.30;90760.88;5013315;28;20459;-68
2022/04/16 08:38:59;;;;;;;16.85;5.70;;;;;;;26.50;28.49;90763.31;5013670;28;20050;-66
2022/04/16 08:41:25;;;;;;;8.52;5.20;;;;;;;27.23;27.84;90761.88;5013609;28;20029;-65
2022/04/16 08:43:53;;;;;;;161.00;16.20;;;;;;;26.69;28.35;90765.41;5013280;28;20401;-66
2022/04/16 08:46:18;;;;;;;24.05;6.22;;;;;;;26.45;28.86;90763.78;5013746;28;20033;-65
2022/04/16 08:48:44;;;;;;;14.65;6.32;;;;;;;25.06;29.59;90759.75;5012877;28;20385;-67
2022/04/16 08:51:11;;;;;;;48.40;7.57;;;;;;;25.03;29.88;90744.25;5012993;28;20569;-66
2022/04/16 08:53:37;;;;;;;38.22;7.40;;;;;;;24.37;31.81;90747.00;5013414;28;20080;-67
2022/04/16 08:56:03;;;;;;;10.95;6.10;;;;;;;24.23;31.25;90752.50;5013569;28;20030;-68
2022/04/16 08:58:31;;;;;;;117.85;14.38;;;;;;;25.00;30.60;90745.03;5013076;28;20116;-67
2022/04/16 09:00:58;;;;;;;9.00;5.28;;;;;;;25.33;29.90;90730.75;5013207;28;20040;-68
2022/04/16 09:03:40;;;;;;;53.17;8.25;;;;;;;26.37;29.86;90730.38;5012963;28;20022;-66
2022/04/16 09:06:07;;;;;;;18.33;6.50;;;;;;;26.36;28.92;90728.84;5012582;28;20385;-67
2022/04/16 09:08:34;;;;;;;85.70;10.68;;;;;;;25.61;30.28;90737.09;5012985;28;20037;-68
2022/04/16 09:11:11;;;;;;;12.13;6.88;;;;;;;25.54;30.25;90735.19;5012986;28;20462;-67
2022/04/16 09:13:49;;;;;;;20.35;8.77;;;;;;;24.12;31.51;90734.28;5013288;28;20026;-68
2022/04/16 09:16:14;;;;;;;24.45;7.38;;;;;;;24.15;31.57;90735.47;5012966;28;20037;-65
2022/04/16 09:18:54;;;;;;;18.27;6.68;;;;;;;24.50;31.71;90729.06;5012825;28;20439;-65
2022/04/16 09:21:24;;;;;;;10.55;5.55;;;;;;;23.90;31.97;90725.47;5012213;28;20037;-65
2022/04/16 09:23:52;;;;;;;9.00;5.60;;;;;;;24.20;32.95;90726.88;5012717;28;20399;-64
2022/04/16 09:26:35;;;;;;;15.65;8.07;;;;;;;25.81;30.46;90735.31;5012702;28;20066;-65
2022/04/16 09:29:07;;;;;;;66.23;10.57;;;;;;;24.96;31.27;90715.13;5012531;28;20061;-65
2022/04/16 09:31:34;;;;;;;20.75;7.45;;;;;;;24.27;32.21;90723.34;5011676;28;20045;-65
2022/04/16 09:34:01;;;;;;;20.35;7.35;;;;;;;27.24;29.08;90720.50;5011778;28;20044;-65
2022/04/16 09:36:27;;;;;;;22.00;6.05;;;;;;;27.12;29.53;90724.59;5011448;28;20022;-68
2022/04/16 09:39:04;;;;;;;24.10;7.45;;;;;;;25.10;30.76;90716.97;5011418;28;20034;-65
2022/04/16 09:41:40;;;;;;;22.20;6.60;;;;;;;25.00;31.48;90712.38;5011348;28;20046;-64
2022/04/16 09:44:26;;;;;;;16.45;5.90;;;;;;;25.20;31.45;90704.41;4992290;28;20053;-64
2022/04/16 09:46:52;;;;;;;25.33;6.95;;;;;;;24.75;31.97;90696.22;4992604;28;20026;-64
2022/04/16 09:49:18;;;;;;;30.65;9.27;;;;;;;25.43;30.60;90717.44;4991904;28;20061;-65
2022/04/16 09:51:47;;;;;;;53.50;18.48;;;;;;;25.17;30.83;90714.16;5002659;28;20476;-64
2022/04/16 09:54:13;;;;;;;24.25;7.57;;;;;;;25.39;30.95;90710.06;5008933;28;20053;-65
2022/04/16 09:56:45;;;;;;;15.00;5.65;;;;;;;25.27;30.82;90696.97;5011421;28;20100;-65
2022/04/16 09:59:12;;;;;;;51.70;10.93;;;;;;;24.61;31.43;90697.09;5008396;28;20026;-64
2022/04/16 10:01:41;;;;;;;18.13;7.60;;;;;;;22.13;35.38;90699.31;5010715;28;20411;-65
2022/04/16 10:04:08;;;;;;;29.90;13.05;;;;;;;21.81;35.34;90704.63;5011011;28;20431;-65
2022/04/16 10:06:34;;;;;;;16.77;7.47;;;;;;;22.81;34.76;90702.81;5011642;28;20034;-64
2022/04/16 10:09:13;;;;;;;13.32;6.95;;;;;;;22.22;35.94;90699.69;5011641;28;20034;-65
2022/04/16 10:12:59;;;;;;;16.33;7.45;;;;;;;23.28;35.53;90701.59;5011696;28;20549;-65
2022/04/16 10:15:04;;;;;;;12.90;6.47;;;;;;;23.95;32.79;90694.41;5011150;28;20033;-66
2022/04/16 10:17:46;;;;;;;50.25;11.32;;;;;;;24.32;32.92;90695.78;5011012;28;20030;-66
2022/04/16 10:20:15;;;;;;;73.45;22.35;;;;;;;22.74;34.13;90697.41;5010360;28;20087;-65
2022/04/16 10:22:55;;;;;;;51.08;19.20;;;;;;;22.97;33.74;90686.94;5011320;28;20088;-64
2022/04/16 10:25:47;;;;;;;24.38;7.93;;;;;;;22.95;35.19;90691.97;5011352;28;20105;-65
2022/04/16 10:28:23;;;;;;;18.08;9.40;;;;;;;24.22;32.81;90689.19;5007382;28;20500;-64
2022/04/16 10:30:53;;;;;;;65.28;10.45;;;;;;;23.43;34.33;90675.19;5011410;28;20022;-65
2022/04/16 10:33:24;;;;;;;17.70;7.15;;;;;;;21.90;34.90;90683.34;5010314;28;20100;-66
2022/04/16 10:35:52;;;;;;;11.77;6.68;;;;;;;24.21;33.70;90679.50;4996604;28;20109;-65
2022/04/16 10:38:25;;;;;;;25.48;9.20;;;;;;;25.82;31.92;90674.19;4991417;28;20478;-65
2022/04/16 10:41:01;;;;;;;18.85;9.48;;;;;;;26.26;30.34;90681.41;4991556;28;20041;-65
2022/04/16 10:43:33;;;;;;;30.25;9.18;;;;;;;25.97;30.58;90682.97;4999463;28;20042;-64
2022/04/16 10:46:06;;;;;;;13.25;6.85;;;;;;;27.35;30.02;90673.88;4997651;28;20056;-65
2022/04/16 10:48:36;;;;;;;20.25;7.97;;;;;;;26.70;30.07;90671.44;4995075;28;20038;-64
2022/04/16 10:51:03;;;;;;;23.13;7.55;;;;;;;23.83;33.86;90663.03;5010366;28;20104;-64
2022/04/16 10:53:33;;;;;;;39.13;20.38;;;;;;;24.84;31.54;90671.28;5011257;28;20077;-64
2022/04/16 10:56:30;;;;;;;21.40;8.18;;;;;;;24.70;31.16;90677.63;4993657;28;20050;-65
2022/04/16 10:59:01;;;;;;;8.63;5.35;;;;;;;24.24;32.85;90661.63;5009453;28;20046;-65
2022/04/16 11:01:29;;;;;;;20.85;6.65;;;;;;;26.46;30.32;90667.88;5010794;28;20040;-65
2022/04/16 11:03:56;;;;;;;19.23;6.32;;;;;;;26.61;30.61;90673.91;5011105;28;20038;-65
2022/04/16 11:06:32;;;;;;;28.85;8.20;;;;;;;25.65;30.92;90664.25;5010661;28;20069;-65
2022/04/16 11:08:59;;;;;;;61.63;10.13;;;;;;;25.15;31.12;90659.34;5010723;28;20040;-66
2022/04/16 11:11:24;;;;;;;32.08;7.40;;;;;;;25.03;31.21;90668.81;5011639;28;20038;-66
2022/04/16 11:13:51;;;;;;;24.58;8.73;;;;;;;25.18;32.07;90664.00;5015119;28;20042;-64
2022/04/16 11:16:21;;;;;;;27.15;9.68;;;;;;;24.80;32.14;90655.00;5015022;28;20034;-64
2022/04/16 11:18:50;;;;;;;24.00;10.23;;;;;;;24.12;31.86;90660.13;5015064;28;20033;-64
2022/04/16 11:21:24;;;;;;;29.05;12.68;;;;;;;23.58;34.49;90660.44;5014524;28;20042;-65
2022/04/16 11:23:54;;;;;;;23.88;10.98;;;;;;;21.81;34.54;90659.34;5014712;28;20045;-66
2022/04/16 11:34:42;;;;;;;8.82;5.30;;;;;;;23.89;33.13;90656.00;5013546;28;20037;-66
2022/04/16 11:37:08;;;;;;;10.38;8.32;;;;;;;23.94;31.92;90648.59;5013936;28;20038;-67
2022/04/16 11:39:34;;;;;;;12.13;5.40;;;;;;;23.86;32.10;90645.16;5014072;28;20048;-67
2022/04/16 11:42:07;;;;;;;26.63;8.73;;;;;;;24.22;32.73;90645.72;5011188;28;20464;-67
2022/04/16 11:44:45;;;;;;;25.15;6.65;;;;;;;22.80;34.05;90655.16;5013701;28;20041;-67
2022/04/16 11:47:17;;;;;;;13.27;7.30;;;;;;;23.22;33.97;90637.28;5014400;28;20045;-66
2022/04/16 11:50:03;;;;;;;29.35;5.70;;;;;;;24.27;32.07;90639.06;5013379;28;20037;-68
2022/04/16 11:52:31;;;;;;;11.32;6.10;;;;;;;24.35;32.26;90646.81;5011814;28;20037;-66
2022/04/16 11:55:06;;;;;;;125.07;14.02;;;;;;;23.92;31.83;90635.41;5014059;28;20518;-65
2022/04/16 11:57:35;;;;;;;34.10;7.13;;;;;;;24.20;32.59;90629.03;5014440;28;20128;-65
2022/04/16 12:00:05;;;;;;;39.85;9.20;;;;;;;22.65;34.25;90629.22;5014318;28;20041;-66